sensor_id;sensor_type;location;lat;lon;timestamp;P1;durP1;ratioP1;P2;durP2;ratioP2
74213;SDS011;62576;55.694;37.494;2023-02-28T00:01:34;14.90;;;5.60;;
74213;SDS011;62576;55.694;37.494;2023-02-28T00:04:04;14.60;;;4.72;;
74213;SDS011;62576;55.694;37.494;2023-02-28T00:06:35;12.63;;;4.18;;
74213;SDS011;62576;55.694;37.494;2023-02-28T00:09:05;14.82;;;5.50;;
74213;SDS011;62576;55.694;37.494;2023-02-28T00:11:35;15.63;;;5.30;;
74213;SDS011;62576;55.694;37.494;2023-02-28T00:14:05;20.98;;;8.38;;
74213;SDS011;62576;55.694;37.494;2023-02-28T00:16:35;19.95;;;8.02;;
74213;SDS011;62576;55.694;37.494;2023-02-28T00:19:05;16.52;;;5.82;;
74213;SDS011;62576;55.694;37.494;2023-02-28T00:21:37;17.60;;;7.75;;
74213;SDS011;62576;55.694;37.494;2023-02-28T00:24:08;23.90;;;11.13;;
74213;SDS011;62576;55.694;37.494;2023-02-28T00:26:40;20.92;;;11.93;;
74213;SDS011;62576;55.694;37.494;2023-02-28T00:29:10;25.05;;;14.38;;
74213;SDS011;62576;55.694;37.494;2023-02-28T00:31:40;19.90;;;7.57;;
74213;SDS011;62576;55.694;37.494;2023-02-28T00:34:10;22.58;;;10.52;;
74213;SDS011;62576;55.694;37.494;2023-02-28T00:36:42;23.30;;;8.00;;
74213;SDS011;62576;55.694;37.494;2023-02-28T00:39:14;22.33;;;11.18;;
74213;SDS011;62576;55.694;37.494;2023-02-28T00:41:47;16.55;;;6.97;;
74213;SDS011;62576;55.694;37.494;2023-02-28T00:44:17;15.07;;;5.15;;
74213;SDS011;62576;55.694;37.494;2023-02-28T00:46:49;17.05;;;5.43;;
74213;SDS011;62576;55.694;37.494;2023-02-28T00:49:19;19.70;;;7.07;;
74213;SDS011;62576;55.694;37.494;2023-02-28T00:51:51;20.27;;;6.15;;
74213;SDS011;62576;55.694;37.494;2023-02-28T00:54:22;17.45;;;6.38;;
74213;SDS011;62576;55.694;37.494;2023-02-28T00:56:52;17.52;;;6.90;;
74213;SDS011;62576;55.694;37.494;2023-02-28T00:59:22;13.38;;;4.93;;
74213;SDS011;62576;55.694;37.494;2023-02-28T01:01:53;12.10;;;5.95;;
74213;SDS011;62576;55.694;37.494;2023-02-28T01:04:23;15.20;;;5.40;;
74213;SDS011;62576;55.694;37.494;2023-02-28T01:06:54;14.68;;;6.88;;
74213;SDS011;62576;55.694;37.494;2023-02-28T01:09:24;13.93;;;5.30;;
74213;SDS011;62576;55.694;37.494;2023-02-28T01:11:54;10.30;;;4.53;;
74213;SDS011;62576;55.694;37.494;2023-02-28T01:14:24;10.73;;;3.67;;
74213;SDS011;62576;55.694;37.494;2023-02-28T01:16:54;8.30;;;3.20;;
74213;SDS011;62576;55.694;37.494;2023-02-28T01:19:24;9.43;;;3.67;;
74213;SDS011;62576;55.694;37.494;2023-02-28T01:21:56;8.70;;;3.42;;
74213;SDS011;62576;55.694;37.494;2023-02-28T01:24:26;9.43;;;3.75;;
74213;SDS011;62576;55.694;37.494;2023-02-28T01:26:56;7.30;;;3.08;;
74213;SDS011;62576;55.694;37.494;2023-02-28T01:29:26;9.82;;;3.30;;
74213;SDS011;62576;55.694;37.494;2023-02-28T01:31:56;12.15;;;4.40;;
74213;SDS011;62576;55.694;37.494;2023-02-28T01:34:27;9.52;;;3.95;;
74213;SDS011;62576;55.694;37.494;2023-02-28T01:36:59;12.95;;;6.40;;
74213;SDS011;62576;55.694;37.494;2023-02-28T01:39:29;10.02;;;3.72;;
74213;SDS011;62576;55.694;37.494;2023-02-28T01:41:59;10.10;;;4.30;;
74213;SDS011;62576;55.694;37.494;2023-02-28T01:47:34;10.77;;;4.03;;
74213;SDS011;62576;55.694;37.494;2023-02-28T01:50:06;10.55;;;4.03;;
74213;SDS011;62576;55.694;37.494;2023-02-28T01:52:40;12.82;;;5.40;;
74213;SDS011;62576;55.694;37.494;2023-02-28T01:55:12;13.98;;;4.57;;
74213;SDS011;62576;55.694;37.494;2023-02-28T01:57:44;14.05;;;4.68;;
74213;SDS011;62576;55.694;37.494;2023-02-28T02:00:18;19.50;;;7.28;;
74213;SDS011;62576;55.694;37.494;2023-02-28T02:05:23;13.65;;;6.10;;
74213;SDS011;62576;55.694;37.494;2023-02-28T02:07:57;7.88;;;2.72;;
74213;SDS011;62576;55.694;37.494;2023-02-28T02:10:33;11.65;;;3.80;;
74213;SDS011;62576;55.694;37.494;2023-02-28T02:13:08;9.48;;;3.28;;
74213;SDS011;62576;55.694;37.494;2023-02-28T02:15:48;8.30;;;3.33;;
74213;SDS011;62576;55.694;37.494;2023-02-28T02:18:26;9.30;;;3.03;;
74213;SDS011;62576;55.694;37.494;2023-02-28T02:21:15;9.05;;;3.95;;
74213;SDS011;62576;55.694;37.494;2023-02-28T02:24:14;8.50;;;3.63;;
74213;SDS011;62576;55.694;37.494;2023-02-28T02:32:41;14.90;;;6.65;;
74213;SDS011;62576;55.694;37.494;2023-02-28T02:35:29;10.52;;;4.70;;
74213;SDS011;62576;55.694;37.494;2023-02-28T02:38:06;9.63;;;3.38;;
74213;SDS011;62576;55.694;37.494;2023-02-28T02:40:46;7.10;;;2.72;;
74213;SDS011;62576;55.694;37.494;2023-02-28T02:43:22;9.38;;;3.67;;
74213;SDS011;62576;55.694;37.494;2023-02-28T02:45:59;10.02;;;3.53;;
74213;SDS011;62576;55.694;37.494;2023-02-28T02:48:35;8.73;;;3.25;;
74213;SDS011;62576;55.694;37.494;2023-02-28T02:51:11;9.88;;;3.55;;
74213;SDS011;62576;55.694;37.494;2023-02-28T02:53:45;9.38;;;3.50;;
74213;SDS011;62576;55.694;37.494;2023-02-28T02:56:19;6.22;;;2.78;;
74213;SDS011;62576;55.694;37.494;2023-02-28T02:58:54;5.70;;;2.33;;
74213;SDS011;62576;55.694;37.494;2023-02-28T03:01:30;9.60;;;3.65;;
74213;SDS011;62576;55.694;37.494;2023-02-28T03:04:03;9.05;;;3.13;;
74213;SDS011;62576;55.694;37.494;2023-02-28T03:06:48;11.27;;;3.42;;
74213;SDS011;62576;55.694;37.494;2023-02-28T03:09:22;8.60;;;3.20;;
74213;SDS011;62576;55.694;37.494;2023-02-28T03:11:53;8.27;;;3.10;;
74213;SDS011;62576;55.694;37.494;2023-02-28T03:14:26;9.30;;;3.13;;
74213;SDS011;62576;55.694;37.494;2023-02-28T03:17:14;11.23;;;4.57;;
74213;SDS011;62576;55.694;37.494;2023-02-28T03:19:57;6.68;;;2.72;;
74213;SDS011;62576;55.694;37.494;2023-02-28T03:22:39;8.10;;;3.15;;
74213;SDS011;62576;55.694;37.494;2023-02-28T03:25:23;7.32;;;2.55;;
74213;SDS011;62576;55.694;37.494;2023-02-28T03:28:03;7.55;;;2.83;;
74213;SDS011;62576;55.694;37.494;2023-02-28T03:30:40;6.43;;;3.03;;
74213;SDS011;62576;55.694;37.494;2023-02-28T03:33:17;8.50;;;2.90;;
74213;SDS011;62576;55.694;37.494;2023-02-28T03:35:52;9.52;;;4.07;;
74213;SDS011;62576;55.694;37.494;2023-02-28T03:41:00;6.57;;;2.15;;
74213;SDS011;62576;55.694;37.494;2023-02-28T03:43:35;6.68;;;3.30;;
74213;SDS011;62576;55.694;37.494;2023-02-28T03:46:09;10.00;;;4.38;;
74213;SDS011;62576;55.694;37.494;2023-02-28T03:48:42;6.90;;;2.78;;
74213;SDS011;62576;55.694;37.494;2023-02-28T03:51:16;6.93;;;2.83;;
74213;SDS011;62576;55.694;37.494;2023-02-28T03:53:53;7.70;;;2.58;;
74213;SDS011;62576;55.694;37.494;2023-02-28T03:56:29;9.55;;;4.60;;
74213;SDS011;62576;55.694;37.494;2023-02-28T03:59:04;10.30;;;4.43;;
74213;SDS011;62576;55.694;37.494;2023-02-28T04:01:39;9.18;;;3.65;;
74213;SDS011;62576;55.694;37.494;2023-02-28T04:04:12;5.15;;;2.60;;
74213;SDS011;62576;55.694;37.494;2023-02-28T04:06:44;7.82;;;2.67;;
74213;SDS011;62576;55.694;37.494;2023-02-28T04:09:16;6.40;;;2.67;;
74213;SDS011;62576;55.694;37.494;2023-02-28T04:11:48;7.60;;;2.88;;
74213;SDS011;62576;55.694;37.494;2023-02-28T04:14:21;7.65;;;2.97;;
74213;SDS011;62576;55.694;37.494;2023-02-28T04:16:51;9.25;;;4.68;;
74213;SDS011;62576;55.694;37.494;2023-02-28T04:19:21;7.82;;;3.00;;
74213;SDS011;62576;55.694;37.494;2023-02-28T04:21:52;6.65;;;3.45;;
74213;SDS011;62576;55.694;37.494;2023-02-28T04:24:24;9.68;;;4.75;;
74213;SDS011;62576;55.694;37.494;2023-02-28T04:26:57;8.00;;;2.60;;
74213;SDS011;62576;55.694;37.494;2023-02-28T04:29:28;8.88;;;3.20;;
74213;SDS011;62576;55.694;37.494;2023-02-28T04:32:00;6.95;;;3.28;;
74213;SDS011;62576;55.694;37.494;2023-02-28T04:34:28;4.30;;;1.98;;
74213;SDS011;62576;55.694;37.494;2023-02-28T04:37:01;6.93;;;2.78;;
74213;SDS011;62576;55.694;37.494;2023-02-28T04:39:34;8.82;;;4.00;;
74213;SDS011;62576;55.694;37.494;2023-02-28T04:42:03;7.15;;;2.88;;
74213;SDS011;62576;55.694;37.494;2023-02-28T04:44:33;6.57;;;2.67;;
74213;SDS011;62576;55.694;37.494;2023-02-28T04:47:03;7.00;;;2.60;;
74213;SDS011;62576;55.694;37.494;2023-02-28T04:49:34;7.82;;;2.83;;
74213;SDS011;62576;55.694;37.494;2023-02-28T04:52:05;6.47;;;2.15;;
74213;SDS011;62576;55.694;37.494;2023-02-28T04:54:38;5.85;;;3.15;;
74213;SDS011;62576;55.694;37.494;2023-02-28T04:57:08;6.50;;;2.65;;
74213;SDS011;62576;55.694;37.494;2023-02-28T04:59:38;6.15;;;2.90;;
74213;SDS011;62576;55.694;37.494;2023-02-28T05:02:08;7.18;;;2.33;;
74213;SDS011;62576;55.694;37.494;2023-02-28T05:04:39;8.57;;;3.40;;
74213;SDS011;62576;55.694;37.494;2023-02-28T05:07:11;6.28;;;2.85;;
74213;SDS011;62576;55.694;37.494;2023-02-28T05:09:43;6.30;;;2.63;;
74213;SDS011;62576;55.694;37.494;2023-02-28T05:12:13;6.97;;;3.40;;
74213;SDS011;62576;55.694;37.494;2023-02-28T05:14:44;7.80;;;4.05;;
74213;SDS011;62576;55.694;37.494;2023-02-28T05:17:14;5.85;;;2.58;;
74213;SDS011;62576;55.694;37.494;2023-02-28T05:19:45;9.88;;;3.25;;
74213;SDS011;62576;55.694;37.494;2023-02-28T05:22:15;6.85;;;2.63;;
74213;SDS011;62576;55.694;37.494;2023-02-28T05:24:47;6.47;;;2.03;;
74213;SDS011;62576;55.694;37.494;2023-02-28T05:27:17;7.18;;;2.50;;
74213;SDS011;62576;55.694;37.494;2023-02-28T05:29:48;6.60;;;2.75;;
74213;SDS011;62576;55.694;37.494;2023-02-28T05:32:18;5.90;;;2.60;;
74213;SDS011;62576;55.694;37.494;2023-02-28T05:34:49;4.13;;;1.80;;
74213;SDS011;62576;55.694;37.494;2023-02-28T05:37:19;6.07;;;1.90;;
74213;SDS011;62576;55.694;37.494;2023-02-28T05:39:53;6.13;;;2.23;;
74213;SDS011;62576;55.694;37.494;2023-02-28T05:42:23;6.68;;;2.28;;
74213;SDS011;62576;55.694;37.494;2023-02-28T05:44:53;6.00;;;2.33;;
74213;SDS011;62576;55.694;37.494;2023-02-28T05:47:23;6.95;;;2.80;;
74213;SDS011;62576;55.694;37.494;2023-02-28T05:49:54;6.40;;;2.80;;
74213;SDS011;62576;55.694;37.494;2023-02-28T05:52:24;8.48;;;2.95;;
74213;SDS011;62576;55.694;37.494;2023-02-28T05:54:56;6.13;;;2.58;;
74213;SDS011;62576;55.694;37.494;2023-02-28T05:57:26;7.47;;;2.47;;
74213;SDS011;62576;55.694;37.494;2023-02-28T05:59:56;7.95;;;3.53;;
74213;SDS011;62576;55.694;37.494;2023-02-28T06:02:26;7.50;;;2.47;;
74213;SDS011;62576;55.694;37.494;2023-02-28T06:04:56;6.38;;;2.70;;
74213;SDS011;62576;55.694;37.494;2023-02-28T06:07:26;7.15;;;3.25;;
74213;SDS011;62576;55.694;37.494;2023-02-28T06:09:58;4.85;;;1.92;;
74213;SDS011;62576;55.694;37.494;2023-02-28T06:12:28;8.02;;;2.50;;
74213;SDS011;62576;55.694;37.494;2023-02-28T06:14:59;7.80;;;3.35;;
74213;SDS011;62576;55.694;37.494;2023-02-28T06:17:29;7.88;;;4.05;;
74213;SDS011;62576;55.694;37.494;2023-02-28T06:19:59;4.82;;;2.55;;
74213;SDS011;62576;55.694;37.494;2023-02-28T06:22:29;7.78;;;2.50;;
74213;SDS011;62576;55.694;37.494;2023-02-28T06:25:01;5.95;;;2.13;;
74213;SDS011;62576;55.694;37.494;2023-02-28T06:27:38;7.18;;;2.45;;
74213;SDS011;62576;55.694;37.494;2023-02-28T06:30:09;5.35;;;2.40;;
74213;SDS011;62576;55.694;37.494;2023-02-28T06:32:41;7.30;;;3.10;;
74213;SDS011;62576;55.694;37.494;2023-02-28T06:35:11;6.43;;;2.28;;
74213;SDS011;62576;55.694;37.494;2023-02-28T06:37:42;6.88;;;3.40;;
74213;SDS011;62576;55.694;37.494;2023-02-28T06:40:14;6.93;;;2.55;;
74213;SDS011;62576;55.694;37.494;2023-02-28T06:42:45;6.63;;;3.10;;
74213;SDS011;62576;55.694;37.494;2023-02-28T06:45:15;7.72;;;3.67;;
74213;SDS011;62576;55.694;37.494;2023-02-28T06:47:45;5.47;;;1.98;;
74213;SDS011;62576;55.694;37.494;2023-02-28T06:50:17;4.90;;;2.22;;
74213;SDS011;62576;55.694;37.494;2023-02-28T06:52:48;6.50;;;3.20;;
74213;SDS011;62576;55.694;37.494;2023-02-28T06:55:23;6.22;;;2.35;;
74213;SDS011;62576;55.694;37.494;2023-02-28T06:57:55;5.40;;;2.85;;
74213;SDS011;62576;55.694;37.494;2023-02-28T07:00:26;10.05;;;3.55;;
74213;SDS011;62576;55.694;37.494;2023-02-28T07:02:56;7.72;;;3.65;;
74213;SDS011;62576;55.694;37.494;2023-02-28T07:05:26;6.25;;;2.60;;
74213;SDS011;62576;55.694;37.494;2023-02-28T07:07:56;7.40;;;3.00;;
74213;SDS011;62576;55.694;37.494;2023-02-28T07:10:29;7.47;;;3.63;;
74213;SDS011;62576;55.694;37.494;2023-02-28T07:12:59;6.97;;;2.80;;
74213;SDS011;62576;55.694;37.494;2023-02-28T07:15:29;11.38;;;3.75;;
74213;SDS011;62576;55.694;37.494;2023-02-28T07:17:59;8.10;;;3.00;;
74213;SDS011;62576;55.694;37.494;2023-02-28T07:20:30;8.75;;;3.63;;
74213;SDS011;62576;55.694;37.494;2023-02-28T07:23:00;8.77;;;4.35;;
74213;SDS011;62576;55.694;37.494;2023-02-28T07:25:31;6.82;;;2.97;;
74213;SDS011;62576;55.694;37.494;2023-02-28T07:28:04;6.95;;;2.38;;
74213;SDS011;62576;55.694;37.494;2023-02-28T07:30:34;8.30;;;4.55;;
74213;SDS011;62576;55.694;37.494;2023-02-28T07:33:04;7.72;;;3.80;;
74213;SDS011;62576;55.694;37.494;2023-02-28T07:35:35;7.03;;;3.88;;
74213;SDS011;62576;55.694;37.494;2023-02-28T07:38:05;8.93;;;4.03;;
74213;SDS011;62576;55.694;37.494;2023-02-28T07:40:38;8.88;;;3.50;;
74213;SDS011;62576;55.694;37.494;2023-02-28T07:43:08;5.93;;;2.75;;
74213;SDS011;62576;55.694;37.494;2023-02-28T07:45:38;8.77;;;3.67;;
74213;SDS011;62576;55.694;37.494;2023-02-28T07:48:09;6.93;;;2.47;;
74213;SDS011;62576;55.694;37.494;2023-02-28T07:50:36;4.47;;;1.90;;
74213;SDS011;62576;55.694;37.494;2023-02-28T07:53:07;9.07;;;4.28;;
74213;SDS011;62576;55.694;37.494;2023-02-28T07:55:38;7.82;;;3.35;;
74213;SDS011;62576;55.694;37.494;2023-02-28T07:58:09;7.90;;;3.90;;
74213;SDS011;62576;55.694;37.494;2023-02-28T08:00:39;7.00;;;3.05;;
74213;SDS011;62576;55.694;37.494;2023-02-28T08:03:10;7.65;;;3.08;;
74213;SDS011;62576;55.694;37.494;2023-02-28T08:05:42;8.85;;;2.65;;
74213;SDS011;62576;55.694;37.494;2023-02-28T08:08:12;8.57;;;2.88;;
74213;SDS011;62576;55.694;37.494;2023-02-28T08:10:43;9.23;;;3.63;;
74213;SDS011;62576;55.694;37.494;2023-02-28T08:13:14;8.77;;;4.57;;
74213;SDS011;62576;55.694;37.494;2023-02-28T08:15:44;6.60;;;2.72;;
74213;SDS011;62576;55.694;37.494;2023-02-28T08:18:15;10.93;;;3.75;;
74213;SDS011;62576;55.694;37.494;2023-02-28T08:20:48;9.32;;;3.35;;
74213;SDS011;62576;55.694;37.494;2023-02-28T08:23:18;7.78;;;3.33;;
74213;SDS011;62576;55.694;37.494;2023-02-28T08:25:54;7.40;;;3.00;;
74213;SDS011;62576;55.694;37.494;2023-02-28T08:28:28;7.32;;;2.58;;
74213;SDS011;62576;55.694;37.494;2023-02-28T08:30:58;7.40;;;3.08;;
74213;SDS011;62576;55.694;37.494;2023-02-28T08:33:29;7.57;;;4.40;;
74213;SDS011;62576;55.694;37.494;2023-02-28T08:35:59;7.80;;;2.88;;
74213;SDS011;62576;55.694;37.494;2023-02-28T08:38:30;6.70;;;2.83;;
74213;SDS011;62576;55.694;37.494;2023-02-28T08:41:02;8.43;;;3.15;;
74213;SDS011;62576;55.694;37.494;2023-02-28T08:43:35;8.20;;;3.70;;
74213;SDS011;62576;55.694;37.494;2023-02-28T08:46:06;7.32;;;4.13;;
74213;SDS011;62576;55.694;37.494;2023-02-28T08:48:37;7.88;;;3.75;;
74213;SDS011;62576;55.694;37.494;2023-02-28T08:51:13;7.82;;;3.63;;
74213;SDS011;62576;55.694;37.494;2023-02-28T08:53:46;7.50;;;4.85;;
74213;SDS011;62576;55.694;37.494;2023-02-28T08:56:19;7.13;;;2.88;;
74213;SDS011;62576;55.694;37.494;2023-02-28T08:58:50;8.38;;;3.30;;
74213;SDS011;62576;55.694;37.494;2023-02-28T09:01:23;7.63;;;3.63;;
74213;SDS011;62576;55.694;37.494;2023-02-28T09:03:56;9.95;;;4.43;;
74213;SDS011;62576;55.694;37.494;2023-02-28T09:06:27;9.00;;;4.20;;
74213;SDS011;62576;55.694;37.494;2023-02-28T09:08:58;12.23;;;4.93;;
74213;SDS011;62576;55.694;37.494;2023-02-28T09:11:31;10.00;;;3.60;;
74213;SDS011;62576;55.694;37.494;2023-02-28T09:14:02;10.07;;;4.72;;
74213;SDS011;62576;55.694;37.494;2023-02-28T09:16:33;7.40;;;3.90;;
74213;SDS011;62576;55.694;37.494;2023-02-28T09:19:04;7.60;;;3.30;;
74213;SDS011;62576;55.694;37.494;2023-02-28T09:21:35;8.57;;;4.57;;
74213;SDS011;62576;55.694;37.494;2023-02-28T09:24:06;8.35;;;3.85;;
74213;SDS011;62576;55.694;37.494;2023-02-28T09:29:11;9.52;;;2.88;;
74213;SDS011;62576;55.694;37.494;2023-02-28T09:31:41;5.05;;;2.35;;
74213;SDS011;62576;55.694;37.494;2023-02-28T09:34:11;6.10;;;2.13;;
74213;SDS011;62576;55.694;37.494;2023-02-28T09:36:42;8.05;;;4.25;;
74213;SDS011;62576;55.694;37.494;2023-02-28T09:39:12;6.25;;;3.88;;
74213;SDS011;62576;55.694;37.494;2023-02-28T09:41:46;6.53;;;3.13;;
74213;SDS011;62576;55.694;37.494;2023-02-28T09:44:26;7.60;;;2.80;;
74213;SDS011;62576;55.694;37.494;2023-02-28T09:50:03;8.05;;;3.38;;
74213;SDS011;62576;55.694;37.494;2023-02-28T09:53:13;5.70;;;3.38;;
74213;SDS011;62576;55.694;37.494;2023-02-28T09:56:09;6.47;;;3.13;;
74213;SDS011;62576;55.694;37.494;2023-02-28T10:02:19;5.55;;;2.38;;
74213;SDS011;62576;55.694;37.494;2023-02-28T10:05:09;8.60;;;2.20;;
74213;SDS011;62576;55.694;37.494;2023-02-28T10:08:03;5.97;;;2.42;;
74213;SDS011;62576;55.694;37.494;2023-02-28T10:11:21;5.63;;;2.38;;
74213;SDS011;62576;55.694;37.494;2023-02-28T10:14:18;8.75;;;3.35;;
74213;SDS011;62576;55.694;37.494;2023-02-28T10:16:50;6.32;;;2.67;;
74213;SDS011;62576;55.694;37.494;2023-02-28T10:19:27;6.53;;;2.80;;
74213;SDS011;62576;55.694;37.494;2023-02-28T10:22:05;6.72;;;3.10;;
74213;SDS011;62576;55.694;37.494;2023-02-28T10:24:44;5.60;;;2.63;;
74213;SDS011;62576;55.694;37.494;2023-02-28T10:27:18;5.00;;;2.67;;
74213;SDS011;62576;55.694;37.494;2023-02-28T10:29:51;6.65;;;3.47;;
74213;SDS011;62576;55.694;37.494;2023-02-28T10:32:24;7.88;;;3.97;;
74213;SDS011;62576;55.694;37.494;2023-02-28T10:34:59;10.02;;;3.83;;
74213;SDS011;62576;55.694;37.494;2023-02-28T10:37:37;8.43;;;4.60;;
74213;SDS011;62576;55.694;37.494;2023-02-28T10:40:11;5.70;;;3.03;;
74213;SDS011;62576;55.694;37.494;2023-02-28T10:42:57;4.85;;;2.15;;
74213;SDS011;62576;55.694;37.494;2023-02-28T10:45:31;6.47;;;4.10;;
74213;SDS011;62576;55.694;37.494;2023-02-28T10:48:03;5.93;;;3.00;;
74213;SDS011;62576;55.694;37.494;2023-02-28T10:50:36;11.03;;;4.77;;
74213;SDS011;62576;55.694;37.494;2023-02-28T10:53:16;9.18;;;3.78;;
74213;SDS011;62576;55.694;37.494;2023-02-28T10:55:58;5.93;;;2.92;;
74213;SDS011;62576;55.694;37.494;2023-02-28T10:58:31;6.95;;;3.10;;
74213;SDS011;62576;55.694;37.494;2023-02-28T11:01:12;7.82;;;3.65;;
74213;SDS011;62576;55.694;37.494;2023-02-28T11:03:44;10.53;;;4.27;;
74213;SDS011;62576;55.694;37.494;2023-02-28T11:06:17;11.98;;;4.93;;
74213;SDS011;62576;55.694;37.494;2023-02-28T11:08:50;5.93;;;3.42;;
74213;SDS011;62576;55.694;37.494;2023-02-28T11:11:24;6.82;;;3.80;;
74213;SDS011;62576;55.694;37.494;2023-02-28T11:13:56;8.13;;;3.58;;
74213;SDS011;62576;55.694;37.494;2023-02-28T11:16:33;8.52;;;3.90;;
74213;SDS011;62576;55.694;37.494;2023-02-28T11:19:06;5.82;;;2.33;;
74213;SDS011;62576;55.694;37.494;2023-02-28T11:21:53;7.80;;;4.43;;
74213;SDS011;62576;55.694;37.494;2023-02-28T11:24:24;6.28;;;3.88;;
74213;SDS011;62576;55.694;37.494;2023-02-28T11:26:57;7.57;;;3.00;;
74213;SDS011;62576;55.694;37.494;2023-02-28T11:29:29;8.40;;;4.38;;
74213;SDS011;62576;55.694;37.494;2023-02-28T11:32:04;7.60;;;2.97;;
74213;SDS011;62576;55.694;37.494;2023-02-28T11:34:47;7.25;;;4.35;;
74213;SDS011;62576;55.694;37.494;2023-02-28T11:37:33;7.30;;;3.67;;
74213;SDS011;62576;55.694;37.494;2023-02-28T11:40:05;7.20;;;5.10;;
74213;SDS011;62576;55.694;37.494;2023-02-28T11:42:49;8.40;;;4.47;;
74213;SDS011;62576;55.694;37.494;2023-02-28T11:45:32;12.73;;;5.13;;
74213;SDS011;62576;55.694;37.494;2023-02-28T11:48:16;6.80;;;2.72;;
74213;SDS011;62576;55.694;37.494;2023-02-28T11:50:53;8.48;;;3.72;;
74213;SDS011;62576;55.694;37.494;2023-02-28T11:53:39;10.60;;;3.20;;
74213;SDS011;62576;55.694;37.494;2023-02-28T11:56:39;8.60;;;4.32;;
74213;SDS011;62576;55.694;37.494;2023-02-28T11:59:18;6.63;;;3.03;;
74213;SDS011;62576;55.694;37.494;2023-02-28T12:02:23;9.80;;;4.40;;
74213;SDS011;62576;55.694;37.494;2023-02-28T12:07:54;8.57;;;4.40;;
74213;SDS011;62576;55.694;37.494;2023-02-28T12:10:35;7.05;;;3.15;;
74213;SDS011;62576;55.694;37.494;2023-02-28T12:13:18;8.40;;;4.47;;
74213;SDS011;62576;55.694;37.494;2023-02-28T12:16:01;9.43;;;3.00;;
74213;SDS011;62576;55.694;37.494;2023-02-28T12:18:56;6.53;;;2.33;;
74213;SDS011;62576;55.694;37.494;2023-02-28T12:21:42;7.15;;;3.25;;
74213;SDS011;62576;55.694;37.494;2023-02-28T12:24:39;7.25;;;3.15;;
74213;SDS011;62576;55.694;37.494;2023-02-28T12:27:24;8.43;;;3.30;;
74213;SDS011;62576;55.694;37.494;2023-02-28T12:30:01;10.82;;;3.08;;
74213;SDS011;62576;55.694;37.494;2023-02-28T12:32:36;8.48;;;3.35;;
74213;SDS011;62576;55.694;37.494;2023-02-28T12:35:12;9.57;;;3.58;;
74213;SDS011;62576;55.694;37.494;2023-02-28T12:37:47;7.50;;;2.92;;
74213;SDS011;62576;55.694;37.494;2023-02-28T12:40:25;8.10;;;3.05;;
74213;SDS011;62576;55.694;37.494;2023-02-28T12:43:07;6.97;;;3.58;;
74213;SDS011;62576;55.694;37.494;2023-02-28T12:45:40;8.57;;;3.33;;
74213;SDS011;62576;55.694;37.494;2023-02-28T12:48:13;8.65;;;3.50;;
74213;SDS011;62576;55.694;37.494;2023-02-28T12:50:46;6.32;;;2.72;;
74213;SDS011;62576;55.694;37.494;2023-02-28T12:53:21;8.25;;;3.40;;
74213;SDS011;62576;55.694;37.494;2023-02-28T12:56:05;7.25;;;3.45;;
74213;SDS011;62576;55.694;37.494;2023-02-28T12:58:45;7.30;;;3.30;;
74213;SDS011;62576;55.694;37.494;2023-02-28T13:01:28;8.60;;;4.88;;
74213;SDS011;62576;55.694;37.494;2023-02-28T13:07:28;8.35;;;3.35;;
74213;SDS011;62576;55.694;37.494;2023-02-28T13:10:10;8.40;;;3.97;;
74213;SDS011;62576;55.694;37.494;2023-02-28T13:12:47;8.27;;;3.88;;
74213;SDS011;62576;55.694;37.494;2023-02-28T13:15:21;8.43;;;4.18;;
74213;SDS011;62576;55.694;37.494;2023-02-28T13:17:54;7.38;;;3.08;;
74213;SDS011;62576;55.694;37.494;2023-02-28T13:20:28;8.45;;;3.70;;
74213;SDS011;62576;55.694;37.494;2023-02-28T13:23:02;8.23;;;4.35;;
74213;SDS011;62576;55.694;37.494;2023-02-28T13:34:41;7.63;;;3.47;;
74213;SDS011;62576;55.694;37.494;2023-02-28T13:37:37;8.48;;;3.50;;
74213;SDS011;62576;55.694;37.494;2023-02-28T13:40:28;6.63;;;3.05;;
74213;SDS011;62576;55.694;37.494;2023-02-28T13:43:07;12.43;;;3.75;;
74213;SDS011;62576;55.694;37.494;2023-02-28T13:45:39;11.55;;;3.38;;
74213;SDS011;62576;55.694;37.494;2023-02-28T13:48:41;10.70;;;4.50;;
74213;SDS011;62576;55.694;37.494;2023-02-28T13:57:17;8.88;;;2.72;;
74213;SDS011;62576;55.694;37.494;2023-02-28T13:59:59;8.30;;;4.47;;
74213;SDS011;62576;55.694;37.494;2023-02-28T14:02:48;7.95;;;3.65;;
74213;SDS011;62576;55.694;37.494;2023-02-28T14:05:34;9.05;;;4.82;;
74213;SDS011;62576;55.694;37.494;2023-02-28T14:08:06;8.23;;;3.72;;
74213;SDS011;62576;55.694;37.494;2023-02-28T14:10:43;7.10;;;2.97;;
74213;SDS011;62576;55.694;37.494;2023-02-28T14:16:13;6.85;;;2.53;;
74213;SDS011;62576;55.694;37.494;2023-02-28T14:18:47;6.43;;;2.85;;
74213;SDS011;62576;55.694;37.494;2023-02-28T14:21:21;7.97;;;4.38;;
74213;SDS011;62576;55.694;37.494;2023-02-28T14:24:08;8.20;;;4.78;;
74213;SDS011;62576;55.694;37.494;2023-02-28T14:27:00;9.23;;;4.85;;
74213;SDS011;62576;55.694;37.494;2023-02-28T14:33:04;9.90;;;3.60;;
74213;SDS011;62576;55.694;37.494;2023-02-28T14:35:55;9.10;;;4.32;;
74213;SDS011;62576;55.694;37.494;2023-02-28T14:38:42;7.35;;;2.97;;
74213;SDS011;62576;55.694;37.494;2023-02-28T14:41:20;9.45;;;5.25;;
74213;SDS011;62576;55.694;37.494;2023-02-28T14:43:56;8.80;;;4.68;;
74213;SDS011;62576;55.694;37.494;2023-02-28T14:46:28;9.43;;;4.65;;
74213;SDS011;62576;55.694;37.494;2023-02-28T14:49:05;8.80;;;4.90;;
74213;SDS011;62576;55.694;37.494;2023-02-28T14:51:42;7.63;;;4.00;;
74213;SDS011;62576;55.694;37.494;2023-02-28T14:54:13;9.20;;;5.10;;
74213;SDS011;62576;55.694;37.494;2023-02-28T14:56:47;7.20;;;3.47;;
74213;SDS011;62576;55.694;37.494;2023-02-28T14:59:24;9.32;;;3.17;;
74213;SDS011;62576;55.694;37.494;2023-02-28T15:02:14;7.75;;;3.97;;
74213;SDS011;62576;55.694;37.494;2023-02-28T15:04:54;8.90;;;4.35;;
74213;SDS011;62576;55.694;37.494;2023-02-28T15:07:25;6.70;;;3.83;;
74213;SDS011;62576;55.694;37.494;2023-02-28T15:10:09;11.15;;;4.82;;
74213;SDS011;62576;55.694;37.494;2023-02-28T15:12:45;8.30;;;4.72;;
74213;SDS011;62576;55.694;37.494;2023-02-28T15:15:22;7.90;;;3.25;;
74213;SDS011;62576;55.694;37.494;2023-02-28T15:17:56;6.80;;;2.65;;
74213;SDS011;62576;55.694;37.494;2023-02-28T15:20:29;7.82;;;4.45;;
74213;SDS011;62576;55.694;37.494;2023-02-28T15:23:00;8.10;;;3.42;;
74213;SDS011;62576;55.694;37.494;2023-02-28T15:25:36;6.50;;;3.40;;
74213;SDS011;62576;55.694;37.494;2023-02-28T15:28:09;9.82;;;4.35;;
74213;SDS011;62576;55.694;37.494;2023-02-28T15:33:33;8.05;;;3.20;;
74213;SDS011;62576;55.694;37.494;2023-02-28T15:36:07;6.53;;;3.47;;
74213;SDS011;62576;55.694;37.494;2023-02-28T15:38:43;8.68;;;4.40;;
74213;SDS011;62576;55.694;37.494;2023-02-28T15:41:21;6.68;;;4.00;;
74213;SDS011;62576;55.694;37.494;2023-02-28T15:46:55;7.40;;;4.28;;
74213;SDS011;62576;55.694;37.494;2023-02-28T15:49:33;7.18;;;4.28;;
74213;SDS011;62576;55.694;37.494;2023-02-28T15:52:10;7.40;;;3.40;;
74213;SDS011;62576;55.694;37.494;2023-02-28T15:54:43;6.65;;;3.10;;
74213;SDS011;62576;55.694;37.494;2023-02-28T15:57:17;6.75;;;3.45;;
74213;SDS011;62576;55.694;37.494;2023-02-28T15:59:52;8.65;;;3.13;;
74213;SDS011;62576;55.694;37.494;2023-02-28T16:02:32;5.78;;;2.45;;
74213;SDS011;62576;55.694;37.494;2023-02-28T16:05:21;6.28;;;3.80;;
74213;SDS011;62576;55.694;37.494;2023-02-28T16:07:59;5.00;;;3.17;;
74213;SDS011;62576;55.694;37.494;2023-02-28T16:10:32;10.27;;;3.25;;
74213;SDS011;62576;55.694;37.494;2023-02-28T16:13:03;5.97;;;3.55;;